Time;durP1;ratioP1;P1;durP2;ratioP2;P2;SDS_P1;SDS_P2;PMS_P1;PMS_P2;Temp;Humidity;BMP_temperature;BMP_pressure;BME280_temperature;BME280_humidity;BME280_pressure;Samples;Min_cycle;Max_cycle;Signal;HPM_P1;HPM_P2
2023/07/26 00:02:02;;;;;;;18.20;5.22;;;;;;;31.00;26.23;92873.84;5064438;28;20043;-79
2023/07/26 00:04:27;;;;;;;26.58;4.95;;;;;;;31.07;26.14;92889.97;5064681;28;20023;-79
2023/07/26 00:06:53;;;;;;;22.13;5.15;;;;;;;31.07;25.52;92876.22;5064242;28;20012;-79
2023/07/26 00:09:19;;;;;;;16.88;5.35;;;;;;;31.13;25.65;92876.34;5064208;28;20025;-79
2023/07/26 00:11:44;;;;;;;18.13;4.60;;;;;;;31.10;24.12;92893.78;5064360;28;20096;-80
2023/07/26 00:14:10;;;;;;;17.05;5.13;;;;;;;31.23;24.77;92893.56;5063045;28;20020;-79
2023/07/26 00:16:36;;;;;;;23.38;5.15;;;;;;;31.25;24.43;92889.09;5064321;28;20088;-79
2023/07/26 00:19:01;;;;;;;21.13;5.13;;;;;;;31.32;25.12;92883.22;5064219;28;20345;-79
2023/07/26 00:21:27;;;;;;;21.92;5.00;;;;;;;31.26;25.18;92876.84;5064107;28;20021;-79
2023/07/26 00:23:53;;;;;;;17.88;5.53;;;;;;;31.27;24.48;92875.63;5063894;28;20311;-79
2023/07/26 00:26:18;;;;;;;20.17;5.47;;;;;;;31.24;25.02;92882.06;5062963;28;20028;-79
2023/07/26 00:28:44;;;;;;;20.52;4.97;;;;;;;31.23;25.23;92880.56;5063757;28;20316;-79
2023/07/26 00:31:09;;;;;;;20.33;5.20;;;;;;;31.17;24.78;92880.44;5063964;28;20144;-79
2023/07/26 00:33:34;;;;;;;21.80;5.28;;;;;;;31.23;25.12;92877.81;5063982;28;20095;-79
2023/07/26 00:36:00;;;;;;;22.85;5.47;;;;;;;31.17;24.92;92880.44;5063784;28;20036;-79
2023/07/26 00:38:25;;;;;;;23.13;6.43;;;;;;;31.12;25.86;92883.84;5063931;28;20021;-79
2023/07/26 00:40:51;;;;;;;22.67;5.55;;;;;;;31.10;24.84;92860.75;5063638;28;20025;-79
2023/07/26 00:43:16;;;;;;;15.27;4.75;;;;;;;31.10;25.06;92871.75;5063686;28;20025;-79
2023/07/26 00:45:42;;;;;;;21.15;6.25;;;;;;;31.10;25.15;92869.78;5063496;28;20311;-80
2023/07/26 00:48:09;;;;;;;27.90;5.68;;;;;;;31.10;24.82;92882.78;5063502;28;20025;-80
2023/07/26 00:50:37;;;;;;;26.95;6.53;;;;;;;31.06;25.13;92885.72;5063589;28;20027;-80
2023/07/26 00:53:02;;;;;;;21.17;5.55;;;;;;;31.01;25.48;92871.84;5063326;28;20022;-80
2023/07/26 00:55:29;;;;;;;18.77;4.95;;;;;;;30.99;25.60;92862.06;5062389;28;20043;-80
2023/07/26 00:57:55;;;;;;;13.05;5.35;;;;;;;30.98;25.63;92863.28;5063352;28;20311;-79
2023/07/26 01:00:21;;;;;;;24.20;5.60;;;;;;;30.98;26.51;92868.81;5061880;28;20043;-78
2023/07/26 01:02:47;;;;;;;13.00;5.35;;;;;;;30.97;25.69;92859.00;5062763;28;20044;-78
2023/07/26 01:05:13;;;;;;;22.73;6.00;;;;;;;30.93;25.33;92866.69;5061943;28;20197;-78
2023/07/26 01:07:54;;;;;;;15.60;5.28;;;;;;;30.92;25.69;92859.66;5062703;28;20062;-78
2023/07/26 01:10:26;;;;;;;27.48;6.80;;;;;;;30.85;26.20;92870.97;5063160;28;20154;-79
2023/07/26 01:13:01;;;;;;;21.13;5.90;;;;;;;30.85;27.08;92859.97;5063268;28;20021;-78
2023/07/26 01:15:30;;;;;;;17.13;5.75;;;;;;;30.80;26.93;92863.38;5063150;28;20024;-78
2023/07/26 01:18:09;;;;;;;18.15;5.68;;;;;;;30.69;27.12;92839.13;5062007;28;20062;-79
2023/07/26 01:20:34;;;;;;;20.15;5.70;;;;;;;30.66;25.89;92853.81;5063082;28;20041;-78
2023/07/26 01:23:00;;;;;;;11.18;5.28;;;;;;;30.74;27.07;92854.25;5063380;28;20082;-79
2023/07/26 01:25:25;;;;;;;22.25;6.57;;;;;;;30.69;27.25;92858.38;5063001;28;20204;-80
2023/07/26 01:27:50;;;;;;;23.52;7.00;;;;;;;30.63;27.25;92854.00;5062912;28;20048;-79
2023/07/26 01:30:16;;;;;;;17.42;5.28;;;;;;;30.68;27.21;92832.13;5062774;28;20377;-80
2023/07/26 01:32:43;;;;;;;18.17;5.30;;;;;;;30.64;27.09;92841.78;5062835;28;20218;-80
2023/07/26 01:35:09;;;;;;;22.35;6.07;;;;;;;30.57;27.58;92838.16;5062244;28;20025;-80
2023/07/26 01:37:37;;;;;;;27.50;6.20;;;;;;;30.48;28.30;92832.69;5062921;28;20021;-79
2023/07/26 01:40:04;;;;;;;18.38;6.10;;;;;;;30.39;28.31;92832.75;5062893;28;20041;-80
2023/07/26 01:42:31;;;;;;;21.83;5.68;;;;;;;30.30;28.26;92833.53;5062758;28;20080;-79
2023/07/26 01:45:03;;;;;;;15.60;5.68;;;;;;;30.28;27.50;92822.19;5062666;28;20091;-78
2023/07/26 01:47:29;;;;;;;16.75;5.68;;;;;;;30.42;27.51;92833.78;5062713;28;20048;-78
2023/07/26 01:49:55;;;;;;;20.77;6.22;;;;;;;30.38;27.51;92806.47;5062707;28;20075;-78
2023/07/26 01:52:21;;;;;;;25.35;5.93;;;;;;;30.38;27.00;92807.22;5062542;28;20354;-78
2023/07/26 01:54:47;;;;;;;18.73;5.78;;;;;;;30.40;27.03;92821.25;5062350;28;20324;-79
2023/07/26 01:57:12;;;;;;;20.23;6.03;;;;;;;30.34;26.68;92800.38;5062525;28;20024;-80
2023/07/26 01:59:38;;;;;;;20.85;5.95;;;;;;;30.39;26.44;92811.50;5062479;28;20357;-78
2023/07/26 02:02:03;;;;;;;18.35;5.20;;;;;;;30.43;26.66;92813.31;5062489;28;20084;-78
2023/07/26 02:04:29;;;;;;;20.30;6.35;;;;;;;30.47;26.73;92813.91;5062623;28;20084;-79
2023/07/26 02:06:54;;;;;;;21.75;6.18;;;;;;;30.43;26.35;92816.84;5062338;28;20343;-79
2023/07/26 02:09:20;;;;;;;26.73;7.70;;;;;;;30.40;26.49;92809.50;5062520;28;20033;-78
2023/07/26 02:11:45;;;;;;;21.65;6.43;;;;;;;30.43;25.75;92803.09;5062326;28;20016;-78
2023/07/26 02:14:11;;;;;;;17.85;5.85;;;;;;;30.50;25.77;92816.47;5062377;28;20059;-78
2023/07/26 02:16:36;;;;;;;29.65;6.20;;;;;;;30.47;25.30;92802.91;5062270;28;20017;-78
2023/07/26 02:19:02;;;;;;;21.05;5.88;;;;;;;30.45;25.73;92808.09;5062254;28;20024;-78
2023/07/26 02:21:27;;;;;;;19.65;5.30;;;;;;;30.42;25.59;92818.03;5062463;28;20036;-78
2023/07/26 02:23:53;;;;;;;17.17;5.13;;;;;;;30.37;25.43;92799.47;5062249;28;20349;-78
2023/07/26 02:26:18;;;;;;;26.10;5.95;;;;;;;30.42;24.07;92809.03;5062308;28;20052;-79
2023/07/26 02:28:44;;;;;;;22.88;5.95;;;;;;;30.47;24.51;92809.19;5062096;28;20088;-79
2023/07/26 02:31:09;;;;;;;24.20;6.45;;;;;;;30.52;24.12;92813.28;5062316;28;20056;-80
2023/07/26 02:33:35;;;;;;;23.20;6.43;;;;;;;30.47;24.07;92814.69;5062311;28;20017;-79
2023/07/26 02:36:00;;;;;;;19.52;5.70;;;;;;;30.47;24.47;92808.41;5061148;28;20028;-81
2023/07/26 02:38:26;;;;;;;23.75;6.18;;;;;;;30.47;24.49;92797.41;5062278;28;20193;-79
2023/07/26 02:40:51;;;;;;;21.67;5.78;;;;;;;30.50;24.58;92813.72;5062161;28;20355;-80
2023/07/26 02:43:17;;;;;;;16.73;5.75;;;;;;;30.42;24.73;92818.03;5061949;28;20031;-81
2023/07/26 02:45:43;;;;;;;20.52;6.65;;;;;;;30.45;24.12;92813.59;5064340;28;20028;-80
2023/07/26 02:48:08;;;;;;;15.93;6.03;;;;;;;30.45;24.95;92811.63;5066136;28;20031;-78
2023/07/26 02:50:34;;;;;;;21.63;5.88;;;;;;;30.45;25.10;92811.63;5066065;28;20021;-79
2023/07/26 02:52:59;;;;;;;20.05;6.03;;;;;;;30.37;25.04;92816.69;5065964;28;20020;-78
2023/07/26 02:55:25;;;;;;;20.42;6.00;;;;;;;30.37;25.23;92829.69;5065649;28;20243;-79
2023/07/26 02:57:51;;;;;;;20.48;6.43;;;;;;;30.35;25.51;92818.41;5065733;28;20033;-79
2023/07/26 03:00:16;;;;;;;27.38;7.93;;;;;;;30.30;26.88;92813.53;5065562;28;20099;-78
2023/07/26 03:02:42;;;;;;;24.17;5.97;;;;;;;29.89;30.76;92844.00;5065774;28;20032;-79
2023/07/26 03:05:08;;;;;;;23.30;5.75;;;;;;;29.36;34.55;92827.91;5065491;28;20021;-79
2023/07/26 03:07:34;;;;;;;23.48;6.43;;;;;;;28.89;36.05;92857.28;5065529;28;20071;-79
2023/07/26 03:09:59;;;;;;;17.02;5.60;;;;;;;28.51;38.30;92858.38;5065532;28;20021;-80
2023/07/26 03:12:25;;;;;;;18.70;5.93;;;;;;;28.15;39.02;92876.19;5064384;28;20024;-79
2023/07/26 03:14:51;;;;;;;22.70;5.78;;;;;;;27.77;39.54;92846.31;5065487;28;20029;-79
2023/07/26 03:17:16;;;;;;;23.88;7.20;;;;;;;27.63;39.99;92861.28;5065219;28;20215;-78
2023/07/26 03:19:41;;;;;;;24.67;8.35;;;;;;;27.59;40.39;92866.88;5065327;28;20052;-79
2023/07/26 03:22:07;;;;;;;17.70;6.18;;;;;;;27.51;41.25;92862.84;5064035;28;20056;-80
2023/07/26 03:24:32;;;;;;;17.63;6.00;;;;;;;27.41;42.05;92862.03;5065104;28;20024;-79
2023/07/26 03:26:58;;;;;;;13.90;6.10;;;;;;;27.30;41.73;92880.78;5065150;28;20032;-79
2023/07/26 03:29:24;;;;;;;15.10;6.05;;;;;;;27.19;42.15;92874.88;5064923;28;20033;-78
2023/07/26 03:31:49;;;;;;;26.38;6.05;;;;;;;27.14;42.94;92870.00;5065079;28;20024;-80
2023/07/26 03:34:15;;;;;;;22.80;5.93;;;;;;;27.05;43.04;92853.50;5064975;28;20028;-80
2023/07/26 03:36:41;;;;;;;19.13;6.22;;;;;;;26.95;44.22;92878.03;5064918;28;20032;-79
2023/07/26 03:39:06;;;;;;;25.27;6.28;;;;;;;26.90;43.98;92889.53;5064894;28;20025;-79
2023/07/26 03:41:32;;;;;;;20.73;6.82;;;;;;;26.77;44.69;92869.66;5064748;28;20025;-79
2023/07/26 03:43:57;;;;;;;13.80;5.85;;;;;;;26.72;45.26;92887.38;5064779;28;20323;-79
2023/07/26 03:46:23;;;;;;;16.73;6.28;;;;;;;26.67;45.93;92890.66;5064867;28;20040;-79
2023/07/26 03:48:48;;;;;;;26.13;8.20;;;;;;;26.57;47.08;92864.41;5064719;28;20048;-79
2023/07/26 03:51:14;;;;;;;27.25;8.00;;;;;;;26.58;47.27;92872.22;5064669;28;20223;-79
2023/07/26 03:53:39;;;;;;;19.38;6.38;;;;;;;26.51;48.18;92883.31;5064487;28;20307;-80
2023/07/26 03:56:05;;;;;;;14.25;6.03;;;;;;;26.16;49.65;92885.19;5064235;28;20045;-80
2023/07/26 03:58:30;;;;;;;17.05;6.75;;;;;;;26.12;49.43;92884.53;5064246;28;20021;-80
2023/07/26 04:00:56;;;;;;;30.30;7.53;;;;;;;25.96;49.66;92877.97;5064702;28;20029;-80
2023/07/26 04:03:21;;;;;;;29.35;7.32;;;;;;;25.93;50.64;92895.22;5064441;28;20033;-80
2023/07/26 04:05:47;;;;;;;12.50;5.70;;;;;;;25.92;50.41;92898.38;5064182;28;20277;-80
2023/07/26 04:08:12;;;;;;;15.43;6.60;;;;;;;25.89;51.04;92888.28;5064343;28;20021;-80
2023/07/26 04:10:38;;;;;;;20.80;6.82;;;;;;;25.89;51.00;92893.75;5063234;28;20095;-80
2023/07/26 04:13:03;;;;;;;19.08;6.78;;;;;;;25.80;51.08;92902.56;5064172;28;20025;-80
2023/07/26 04:15:29;;;;;;;20.70;6.40;;;;;;;25.76;51.29;92908.13;5064532;28;20223;-80
2023/07/26 04:17:55;;;;;;;20.60;6.72;;;;;;;25.65;50.79;92902.22;5064282;28;20020;-79
2023/07/26 04:20:20;;;;;;;16.63;7.32;;;;;;;25.79;51.30;92901.81;5063055;28;20052;-79
2023/07/26 04:22:46;;;;;;;22.35;7.10;;;;;;;25.86;52.38;92900.09;5064235;28;20067;-79
2023/07/26 04:25:11;;;;;;;16.60;6.38;;;;;;;25.81;51.90;92896.69;5064033;28;20204;-79
2023/07/26 04:27:37;;;;;;;19.13;6.20;;;;;;;25.87;51.30;92901.59;5063817;28;20025;-80
2023/07/26 04:30:03;;;;;;;24.77;6.82;;;;;;;25.91;52.24;92897.63;5063908;28;20084;-81
2023/07/26 04:32:28;;;;;;;12.07;5.60;;;;;;;25.74;52.13;92898.84;5064175;28;20063;-79
2023/07/26 04:34:54;;;;;;;18.38;6.45;;;;;;;25.72;50.59;92885.63;5063881;28;20017;-79
2023/07/26 04:37:19;;;;;;;20.38;6.40;;;;;;;25.78;50.89;92885.88;5063875;28;20013;-79
2023/07/26 04:39:47;;;;;;;18.13;6.70;;;;;;;25.93;51.62;92867.13;5063757;28;20017;-80
2023/07/26 04:42:13;;;;;;;20.48;6.40;;;;;;;26.07;51.64;92891.28;5063373;28;20023;-79
2023/07/26 04:44:39;;;;;;;18.70;7.18;;;;;;;26.20;50.47;92889.34;5063655;28;20021;-79
2023/07/26 04:47:04;;;;;;;22.30;5.80;;;;;;;26.33;49.68;92861.25;5063584;28;20104;-79
2023/07/26 04:49:30;;;;;;;21.80;6.70;;;;;;;26.47;49.42;92879.94;5063900;28;20098;-80
2023/07/26 04:51:55;;;;;;;28.33;7.22;;;;;;;26.66;50.75;92874.69;5063612;28;20016;-79
2023/07/26 04:54:21;;;;;;;25.65;7.68;;;;;;;26.75;50.78;92877.53;5063381;28;20049;-79
2023/07/26 04:56:46;;;;;;;28.92;6.75;;;;;;;26.84;50.04;92877.63;5063447;28;20024;-79
2023/07/26 04:59:12;;;;;;;20.80;7.28;;;;;;;26.92;49.23;92869.94;5063611;28;20036;-80
2023/07/26 05:01:37;;;;;;;25.05;7.15;;;;;;;27.05;48.39;92876.16;5063510;28;20025;-79
2023/07/26 05:04:03;;;;;;;27.23;6.85;;;;;;;27.11;46.89;92879.84;5063471;28;20091;-78
2023/07/26 05:06:30;;;;;;;28.38;7.20;;;;;;;27.20;47.26;92879.16;5063565;28;20025;-78
2023/07/26 05:08:56;;;;;;;13.50;6.72;;;;;;;27.36;47.17;92872.78;5062467;28;20049;-79
2023/07/26 05:11:22;;;;;;;27.05;7.22;;;;;;;27.40;45.78;92860.50;5063213;28;20031;-78
2023/07/26 05:13:49;;;;;;;29.33;7.75;;;;;;;27.49;46.72;92870.00;5063227;28;20028;-80
2023/07/26 05:16:14;;;;;;;27.33;7.07;;;;;;;27.51;48.40;92873.81;5063166;28;20082;-78
2023/07/26 05:18:40;;;;;;;27.38;7.50;;;;;;;27.52;47.22;92860.88;5063089;28;20315;-78
2023/07/26 05:21:05;;;;;;;44.85;9.10;;;;;;;27.45;48.61;92858.41;5063078;28;20114;-80
2023/07/26 05:23:31;;;;;;;39.70;7.43;;;;;;;27.46;49.51;92873.59;5063055;28;20035;-79
2023/07/26 05:25:56;;;;;;;28.17;8.10;;;;;;;27.37;49.34;92855.91;5063095;28;20318;-79
2023/07/26 05:28:22;;;;;;;21.98;7.68;;;;;;;27.36;51.05;92870.06;5062854;28;20020;-80
2023/07/26 05:30:47;;;;;;;21.27;6.80;;;;;;;27.23;50.06;92870.09;5062900;28;20021;-79
2023/07/26 05:33:13;;;;;;;37.22;8.38;;;;;;;27.18;49.74;92876.09;5062866;28;20250;-79
2023/07/26 05:35:38;;;;;;;22.38;6.65;;;;;;;27.18;50.41;92881.56;5062821;28;20323;-79
2023/07/26 05:38:04;;;;;;;19.98;6.90;;;;;;;27.12;49.88;92873.16;5062882;28;20278;-80
2023/07/26 05:40:29;;;;;;;22.60;7.43;;;;;;;27.20;50.91;92895.56;5062748;28;20024;-80
2023/07/26 05:42:57;;;;;;;18.98;6.63;;;;;;;27.23;51.06;92875.56;5062826;28;20058;-75
2023/07/26 05:45:22;;;;;;;37.20;8.80;;;;;;;27.26;50.93;92866.47;5062742;28;20059;-75
2023/07/26 05:47:48;;;;;;;27.42;6.88;;;;;;;27.30;51.50;92853.44;5062741;28;20084;-75
2023/07/26 05:50:14;;;;;;;25.63;7.65;;;;;;;27.37;50.67;92886.00;5062673;28;20094;-75
2023/07/26 05:52:40;;;;;;;18.35;7.13;;;;;;;27.35;50.63;92866.53;5062596;28;20071;-75
2023/07/26 05:55:07;;;;;;;34.25;8.70;;;;;;;27.34;50.39;92864.25;5062369;28;20274;-75
2023/07/26 05:57:32;;;;;;;34.35;6.63;;;;;;;27.41;52.28;92839.38;5062533;28;20021;-75
2023/07/26 05:59:58;;;;;;;20.70;6.80;;;;;;;27.43;49.93;92878.00;5062616;28;20066;-75
2023/07/26 06:02:23;;;;;;;25.38;7.05;;;;;;;27.42;50.57;92858.09;5062515;28;20074;-75
2023/07/26 06:04:49;;;;;;;27.05;7.40;;;;;;;27.46;51.41;92866.19;5062616;28;20029;-76
2023/07/26 06:07:16;;;;;;;23.75;8.15;;;;;;;27.46;50.65;92852.50;5062601;28;20066;-76
2023/07/26 06:09:42;;;;;;;24.95;7.70;;;;;;;27.51;50.50;92851.16;5062501;28;20334;-76
2023/07/26 06:12:08;;;;;;;24.00;7.65;;;;;;;27.59;50.78;92857.91;5062525;28;20056;-76
2023/07/26 06:14:33;;;;;;;23.15;7.18;;;;;;;27.64;49.70;92862.03;5062281;28;20139;-77
2023/07/26 06:16:59;;;;;;;28.75;7.13;;;;;;;27.67;48.08;92864.63;5062568;28;20314;-76
2023/07/26 06:19:25;;;;;;;20.50;7.53;;;;;;;27.76;48.86;92834.59;5062635;28;20021;-77
2023/07/26 06:21:55;;;;;;;25.77;6.93;;;;;;;27.86;46.38;92826.41;5066309;28;20070;-76
2023/07/26 06:24:21;;;;;;;27.17;7.85;;;;;;;27.97;46.66;92815.88;5066158;28;20024;-76
2023/07/26 06:26:46;;;;;;;40.88;6.90;;;;;;;28.07;43.48;92841.28;5066106;28;20031;-76
2023/07/26 06:29:11;;;;;;;24.42;7.15;;;;;;;28.20;43.39;92845.47;5066350;28;20249;-77
2023/07/26 06:31:37;;;;;;;32.92;7.00;;;;;;;28.31;43.37;92861.50;5066136;28;20020;-79
2023/07/26 06:34:02;;;;;;;33.95;7.25;;;;;;;28.35;42.86;92847.66;5063695;28;20346;-79
2023/07/26 06:36:28;;;;;;;27.02;7.15;;;;;;;28.42;42.42;92847.38;5065391;28;20025;-81
2023/07/26 06:38:53;;;;;;;31.45;7.35;;;;;;;28.45;41.77;92859.41;5064390;28;20017;-80
2023/07/26 06:41:19;;;;;;;28.00;7.60;;;;;;;28.46;42.58;92850.75;5064581;28;20025;-80
2023/07/26 06:43:44;;;;;;;31.90;7.82;;;;;;;28.56;40.34;92843.34;5066080;28;20025;-80
2023/07/26 06:46:09;;;;;;;20.80;6.47;;;;;;;28.75;40.46;92814.00;5063585;28;20027;-79
2023/07/26 06:48:35;;;;;;;26.45;5.75;;;;;;;29.06;30.07;92859.72;5065542;28;20036;-80
2023/07/26 06:51:04;;;;;;;24.45;6.32;;;;;;;29.27;33.86;92869.84;5066036;28;20041;-79
2023/07/26 06:53:30;;;;;;;26.23;6.82;;;;;;;29.44;30.86;92869.53;5065888;28;20266;-80
2023/07/26 06:55:59;;;;;;;20.50;5.68;;;;;;;29.62;30.03;92842.06;5065717;28;20086;-80
2023/07/26 06:58:25;;;;;;;23.55;6.20;;;;;;;29.81;32.49;92862.03;5065873;28;20079;-79
2023/07/26 07:00:51;;;;;;;29.08;7.85;;;;;;;29.94;32.74;92848.13;5065740;28;20033;-80
2023/07/26 07:03:16;;;;;;;46.70;7.15;;;;;;;30.10;30.79;92841.50;5065894;28;20033;-80
2023/07/26 07:05:42;;;;;;;23.42;5.57;;;;;;;30.28;28.73;92849.69;5065714;28;20371;-80
2023/07/26 07:08:07;;;;;;;22.88;6.18;;;;;;;30.44;27.97;92848.59;5065681;28;20025;-81
2023/07/26 07:10:32;;;;;;;32.85;7.22;;;;;;;30.62;27.48;92824.97;5064368;28;20188;-80
2023/07/26 07:12:58;;;;;;;28.20;6.43;;;;;;;30.80;29.08;92841.38;5065734;28;20116;-80
2023/07/26 07:15:23;;;;;;;18.75;6.28;;;;;;;30.88;26.56;92820.56;5065272;28;20048;-80
2023/07/26 07:17:49;;;;;;;29.70;6.68;;;;;;;31.01;27.86;92834.06;5065414;28;20388;-80
2023/07/26 07:20:15;;;;;;;24.23;5.85;;;;;;;31.14;26.76;92825.56;5065383;28;20219;-80
2023/07/26 07:22:40;;;;;;;37.63;8.15;;;;;;;31.26;26.41;92832.81;5065382;28;20020;-80
2023/07/26 07:25:06;;;;;;;27.80;6.03;;;;;;;31.29;24.71;92815.38;5065071;28;20027;-81
2023/07/26 07:27:31;;;;;;;22.13;6.78;;;;;;;31.29;25.13;92842.88;5065281;28;20029;-80
2023/07/26 07:29:57;;;;;;;27.08;5.55;;;;;;;31.34;26.46;92833.22;5065350;28;20119;-80
2023/07/26 07:32:22;;;;;;;32.85;6.88;;;;;;;31.31;25.97;92829.41;5064246;28;20092;-80
2023/07/26 07:34:48;;;;;;;22.48;6.25;;;;;;;31.44;25.98;92842.94;5065076;28;20249;-81
2023/07/26 07:37:13;;;;;;;35.05;7.07;;;;;;;31.51;25.96;92850.09;5065003;28;20040;-80
2023/07/26 07:39:39;;;;;;;21.95;5.80;;;;;;;31.49;25.56;92844.28;5065047;28;20101;-80
2023/07/26 07:42:05;;;;;;;18.20;5.80;;;;;;;31.55;26.43;92854.19;5064877;28;20262;-79
2023/07/26 07:44:30;;;;;;;25.75;6.28;;;;;;;31.54;26.69;92825.09;5064877;28;20028;-79
2023/07/26 07:46:56;;;;;;;21.67;5.60;;;;;;;31.55;27.14;92842.41;5064780;28;20036;-80
2023/07/26 07:49:22;;;;;;;26.85;6.80;;;;;;;31.65;26.90;92843.84;5064766;28;20024;-80
2023/07/26 07:51:48;;;;;;;18.70;5.68;;;;;;;31.61;26.87;92848.78;5064689;28;20033;-80
2023/07/26 07:54:14;;;;;;;26.63;5.65;;;;;;;31.51;26.53;92839.84;5064476;28;20100;-80
2023/07/26 07:56:39;;;;;;;19.50;5.65;;;;;;;31.58;27.47;92830.44;5064690;28;20020;-80
2023/07/26 07:59:05;;;;;;;27.63;6.22;;;;;;;31.55;27.13;92825.88;5064509;28;20020;-80
2023/07/26 08:01:32;;;;;;;25.27;6.20;;;;;;;31.62;26.93;92827.50;5064530;28;20327;-81
2023/07/26 08:03:59;;;;;;;28.88;6.78;;;;;;;31.54;27.21;92819.59;5063600;28;20021;-80
2023/07/26 08:06:28;;;;;;;19.13;5.40;;;;;;;31.48;26.78;92871.06;5064456;28;20099;-79
2023/07/26 08:08:53;;;;;;;23.88;6.90;;;;;;;31.37;27.10;92857.06;5064303;28;20048;-79
2023/07/26 08:11:19;;;;;;;25.38;5.65;;;;;;;31.47;26.86;92841.22;5064473;28;20075;-79
2023/07/26 08:13:44;;;;;;;32.13;5.82;;;;;;;31.52;27.69;92832.31;5064384;28;20024;-79
2023/07/26 08:16:10;;;;;;;27.42;5.32;;;;;;;31.61;26.68;92845.25;5064212;28;20077;-79
2023/07/26 08:18:36;;;;;;;17.95;5.30;;;;;;;31.57;25.64;92870.22;5064033;28;20048;-80
2023/07/26 08:21:02;;;;;;;26.77;5.75;;;;;;;31.57;25.64;92832.44;5064117;28;20028;-80
2023/07/26 08:23:29;;;;;;;37.80;5.93;;;;;;;31.61;25.85;92854.28;5064260;28;20025;-79
2023/07/26 08:25:55;;;;;;;22.35;5.80;;;;;;;31.71;25.82;92844.72;5064127;28;20044;-79
2023/07/26 08:28:20;;;;;;;25.35;4.80;;;;;;;31.81;24.15;92828.06;5064014;28;20084;-78
2023/07/26 08:30:46;;;;;;;27.17;6.00;;;;;;;31.84;24.81;92836.16;5063727;28;20040;-79
2023/07/26 08:33:12;;;;;;;21.52;5.18;;;;;;;31.89;24.41;92837.47;5063842;28;20223;-79
2023/07/26 08:35:37;;;;;;;22.73;4.82;;;;;;;31.88;23.18;92822.94;5063942;28;20095;-79
2023/07/26 08:38:03;;;;;;;28.65;4.72;;;;;;;31.91;23.37;92840.50;5063724;28;20023;-79
2023/07/26 08:40:29;;;;;;;22.15;5.05;;;;;;;31.95;23.70;92835.56;5063875;28;20035;-80
2023/07/26 08:42:56;;;;;;;27.67;5.35;;;;;;;32.04;24.09;92838.28;5063595;28;20024;-81
2023/07/26 08:45:23;;;;;;;27.10;5.80;;;;;;;32.12;24.03;92844.13;5063664;28;20028;-79
2023/07/26 08:47:49;;;;;;;21.60;4.45;;;;;;;32.16;23.84;92841.94;5063548;28;20025;-79
2023/07/26 08:50:15;;;;;;;21.40;5.28;;;;;;;32.15;23.36;92849.47;5063592;28;20021;-79
2023/07/26 08:52:41;;;;;;;20.80;5.03;;;;;;;32.14;22.81;92827.88;5062428;28;20044;-78
2023/07/26 08:55:09;;;;;;;24.70;5.25;;;;;;;32.11;23.50;92851.66;5063476;28;20043;-79
2023/07/26 08:57:34;;;;;;;26.30;5.10;;;;;;;32.12;23.32;92839.41;5063539;28;20147;-79
2023/07/26 09:00:00;;;;;;;20.00;4.72;;;;;;;32.16;23.21;92828.16;5063764;28;20100;-79
2023/07/26 09:02:26;;;;;;;21.00;5.18;;;;;;;32.17;22.18;92835.97;5063292;28;20261;-79
2023/07/26 09:04:52;;;;;;;18.75;4.72;;;;;;;32.16;23.09;92834.47;5063409;28;20323;-79
2023/07/26 09:07:19;;;;;;;27.90;4.43;;;;;;;32.25;22.03;92835.59;5063499;28;20032;-80
2023/07/26 09:09:44;;;;;;;20.58;5.32;;;;;;;32.30;22.95;92826.63;5063355;28;20271;-80
2023/07/26 09:12:23;;;;;;;37.08;6.60;;;;;;;32.37;21.91;92838.03;5063218;28;20029;-80
2023/07/26 09:15:03;;;;;;;15.68;4.70;;;;;;;32.43;21.75;92840.88;5063454;28;20128;-80
2023/07/26 09:17:38;;;;;;;34.35;4.97;;;;;;;32.43;21.63;92868.47;5062943;28;20363;-80
2023/07/26 09:20:05;;;;;;;20.05;4.80;;;;;;;32.26;21.61;92862.69;5062000;28;20060;-80
2023/07/26 09:22:30;;;;;;;21.08;3.88;;;;;;;32.27;21.87;92852.41;5063074;28;20032;-79
2023/07/26 09:24:56;;;;;;;25.83;4.43;;;;;;;32.22;21.98;92856.59;5063068;28;20028;-80
2023/07/26 09:27:21;;;;;;;12.63;4.97;;;;;;;32.29;21.97;92844.44;5062564;28;20060;-78
2023/07/26 09:29:55;;;;;;;23.45;5.05;;;;;;;32.41;22.52;92861.91;5061612;28;20109;-79
2023/07/26 09:32:29;;;;;;;30.65;5.32;;;;;;;32.44;22.69;92872.72;5062875;28;20606;-79
2023/07/26 09:34:59;;;;;;;13.38;4.32;;;;;;;32.51;23.86;92897.16;5062362;28;20204;-80
2023/07/26 09:37:24;;;;;;;29.92;6.07;;;;;;;32.28;23.27;92875.97;5062679;28;20028;-79
2023/07/26 09:39:50;;;;;;;24.02;5.40;;;;;;;32.27;23.83;92871.72;5062757;28;20135;-79
2023/07/26 09:42:15;;;;;;;21.20;5.05;;;;;;;32.31;23.86;92867.50;5062555;28;20032;-80
2023/07/26 09:44:45;;;;;;;14.23;5.10;;;;;;;32.49;24.64;92868.53;5062710;28;20025;-79
2023/07/26 09:47:11;;;;;;;20.80;4.35;;;;;;;32.55;23.29;92880.44;5062595;28;20033;-79
2023/07/26 09:49:49;;;;;;;26.38;5.25;;;;;;;32.63;24.36;92872.53;5062482;28;20335;-79
2023/07/26 09:52:19;;;;;;;21.38;4.38;;;;;;;32.75;24.54;92888.00;5062576;28;20103;-79
2023/07/26 09:54:46;;;;;;;18.73;4.97;;;;;;;32.84;23.56;92876.09;5061762;28;20072;-80
2023/07/26 09:57:14;;;;;;;17.60;4.70;;;;;;;32.98;24.37;92872.53;5062504;28;20028;-83
2023/07/26 09:59:42;;;;;;;12.93;4.80;;;;;;;32.94;23.64;92864.44;5062538;28;20048;-81
2023/07/26 10:02:09;;;;;;;17.88;5.25;;;;;;;32.96;23.50;92878.53;5062615;28;20047;-83
2023/07/26 10:04:51;;;;;;;28.27;5.65;;;;;;;32.92;24.06;92852.38;5062411;28;20023;-85
2023/07/26 10:07:18;;;;;;;20.95;5.55;;;;;;;33.13;23.87;92858.69;5062370;28;20271;-84
2023/07/26 10:09:46;;;;;;;22.98;5.10;;;;;;;33.21;23.98;92857.03;5062738;28;20079;-86
2023/07/26 10:12:12;;;;;;;27.38;5.30;;;;;;;33.20;23.80;92846.47;5062490;28;20028;-84
2023/07/26 10:14:39;;;;;;;14.88;4.70;;;;;;;33.23;24.13;92848.28;5062422;28;20092;-85
2023/07/26 10:17:06;;;;;;;19.92;4.55;;;;;;;33.14;23.67;92843.66;5062235;28;20088;-85
2023/07/26 10:19:32;;;;;;;22.00;5.13;;;;;;;33.12;24.04;92837.84;5062462;28;20092;-86
2023/07/26 10:21:57;;;;;;;21.08;5.05;;;;;;;33.16;23.72;92849.44;5062538;28;20020;-86
2023/07/26 10:24:24;;;;;;;28.63;4.70;;;;;;;33.20;23.81;92811.34;5062465;28;20384;-87
2023/07/26 10:26:52;;;;;;;21.88;4.80;;;;;;;33.21;23.67;92829.41;5062128;28;20211;-91
2023/07/26 10:29:18;;;;;;;24.95;5.70;;;;;;;33.25;23.68;92837.50;5063432;28;20025;-89
2023/07/26 10:31:44;;;;;;;26.42;4.88;;;;;;;33.18;22.84;92846.97;5211230;22;20092;-87
2023/07/26 10:34:18;;;;;;;25.50;4.72;;;;;;;33.10;22.30;92841.09;5042366;28;20320;-84
2023/07/26 10:36:44;;;;;;;14.30;4.65;;;;;;;33.14;22.56;92835.38;5042373;28;20044;-85
2023/07/26 10:39:12;;;;;;;13.30;3.75;;;;;;;33.18;22.37;92819.34;5041172;28;20017;-80
2023/07/26 10:41:47;;;;;;;25.15;5.05;;;;;;;33.17;22.23;92846.19;5042248;28;20088;-86
2023/07/26 10:44:12;;;;;;;18.58;4.43;;;;;;;33.06;23.04;92831.47;5042522;28;20017;-84
2023/07/26 10:46:49;;;;;;;16.58;4.63;;;;;;;33.01;21.36;92823.88;5042622;28;20204;-84
2023/07/26 10:49:24;;;;;;;15.52;4.60;;;;;;;32.98;21.55;92818.09;5042090;28;20017;-80
2023/07/26 10:52:05;;;;;;;21.92;5.25;;;;;;;33.10;22.70;92826.53;5042281;28;20211;-81
2023/07/26 10:54:45;;;;;;;26.67;4.15;;;;;;;33.02;22.57;92806.09;5042447;28;20056;-81
2023/07/26 10:57:17;;;;;;;11.07;4.60;;;;;;;33.02;22.11;92808.84;5042027;28;20037;-82
2023/07/26 11:00:00;;;;;;;19.70;4.95;;;;;;;33.08;22.37;92815.19;5041007;28;20033;-85
2023/07/26 11:02:43;;;;;;;14.30;4.50;;;;;;;33.14;22.82;92796.72;5042149;28;20032;-86
2023/07/26 11:05:16;;;;;;;16.17;5.38;;;;;;;33.22;22.45;92802.56;5042018;28;20092;-81
2023/07/26 11:07:58;;;;;;;17.92;4.50;;;;;;;33.18;22.55;92802.78;5043943;28;20274;-81
2023/07/26 11:10:32;;;;;;;20.88;4.63;;;;;;;33.23;22.63;92815.88;5045698;28;20274;-83
2023/07/26 11:13:14;;;;;;;24.48;6.20;;;;;;;33.23;22.90;92799.31;5045748;28;20033;-81
2023/07/26 11:15:50;;;;;;;22.85;4.80;;;;;;;33.38;23.57;92804.75;5045485;28;20068;-81
2023/07/26 11:18:16;;;;;;;23.63;4.75;;;;;;;33.42;23.04;92804.53;5044338;28;20075;-88
2023/07/26 11:20:49;;;;;;;25.92;4.38;;;;;;;33.47;23.37;92801.84;5045638;28;20048;-88
2023/07/26 11:23:19;;;;;;;18.75;5.15;;;;;;;33.42;22.78;92815.59;5045541;28;20061;-83